West Chicago, IL (60185)

03:07 AM CDT die 02o July, anno 2015 (GMT -0500)
Ingalton Hills Estates | | Change Station
CLOSE
Current Station
Personal Weather Stations
Location: West Chicago, IL
Elevation: 780 ft
Nearby Weather Stations

Elev 780 ft 41.91 °N, 88.20 °W | Updated 2 seconds ago

Clear
Serena
49.0 °F
Feels Like 49 °F
N
0.0
Ventus Variabilis Ventus from Inter Aquilonem et Zephyrus
Gusts 0.0 mph

Hodie
High -- | Low -- °F
--% Chance of Precip.
Yesterday
High -- | Low -- °F
Precip. -- in
5:21 AM 8:31 PM
Full, 100% visible
Pressio 29.99 in
Visibilitas 10.0 milia passuum
Clouds Serena
Frigus Venti 49 °F
Frigus in quo Ros apparet 48 °F
Umor 97%
Rainfall 0.00 in
Snow Depth Not available.
UV 0 out of 12
Pollen 3.50 out of 12
Air Quality Not available.
Flu Activity Not available.
METAR KDPA 020752Z 02007KT 10SM CLR 10/08 A2999 RMK AO2 SLP155 T01000083

More Conditions Fewer Conditions

Pressio 29.99 in
Visibilitas 10.0 milia passuum
Clouds Serena
Frigus Venti 49 °F
Frigus in quo Ros apparet 48 °F
Umor 97%
Rainfall 0.00 in
Snow Depth Not available.
UV 0 out of 12
Pollen 3.50 out of 12
Air Quality Not available.
Flu Activity Not available.
METAR KDPA 020752Z 02007KT 10SM CLR 10/08 A2999 RMK AO2 SLP155 T01000083

More Conditions Fewer Conditions

10-Day Weather Forecast

×

Almanac

Astronomy

Jul. 02, 2015 Rise Set
Actual Time
Civil Twilight
Nautical Twilight
Astronomical Twilight
Moon
Length Of Visible Light
Length of Day
Tomorrow will be .
, % of the Moon is Illuminated

Today's Extremes

State Highs State Lows

Community

WunderPhotos

Upload Photos

1,834,424 photos uploaded!

WunderBlogs® & News

Nearby

Air Quality

  Air Quality AQ Index Pollutant
Not available.

Snow Depth

Station Depth Elevation

Earthquake Activity

City Distance Mag. Time & Date
Minimum magnitude displayed is 2.5.

Coastal Water Temperatures

Locus Calor

Stations

Nearby Weather Stations

Station Location Temp Frigus Venti Frigus in quo Ros apparet Umor Ventus Precip. Elev Renovata Type